UAL809 KSFO-RPLL
Flight info
| Callsign | UAL809 |
|---|---|
| Flight time | N/A |
| Altitude | 30000 |
| Route | GNNRR3 ALCOA BUTEN BOSKE 35N140W 32N150W 30N160W 28N170W 28N180E 27N170E 26N160E 25N155E 24N150E MONPI 19N130E MUPOB Z153 POLIO |
| Aircraft | B77W/H-SDE1E2E3FGHIJ2J3J4J5M1RWXY/LB1D1 |
Departure
| Time | 2026-05-03 22:32 |
|---|---|
| Airport | San Francisco International Airport (KSFO) |
Arrival
| Time | N/A |
|---|---|
| Airport | Ninoy Aquino International Airport (RPLL) |
| Time | Latitude | Longitude | Altitude | Speed | Heading |
|---|---|---|---|---|---|
| 2026-05-03 22:32 | 37.67758 | -122.53339 | 3940 ft | 260 kts | 271° |
| 2026-05-03 22:32 | 37.67865 | -122.55658 | 4396 ft | 268 kts | 271° |
| 2026-05-03 22:32 | 37.67990 | -122.58000 | 4932 ft | 274 kts | 272° |
| 2026-05-03 22:32 | 37.68124 | -122.60422 | 5510 ft | 278 kts | 272° |
| 2026-05-03 22:33 | 37.68263 | -122.62872 | 6111 ft | 281 kts | 272° |
| 2026-05-03 22:33 | 37.68405 | -122.65330 | 6733 ft | 282 kts | 273° |
| 2026-05-03 22:33 | 37.68549 | -122.67816 | 7252 ft | 285 kts | 273° |
| 2026-05-03 22:33 | 37.68697 | -122.70328 | 7776 ft | 289 kts | 272° |
| 2026-05-03 22:34 | 37.68847 | -122.72879 | 8308 ft | 293 kts | 273° |
| 2026-05-03 22:34 | 37.68999 | -122.75454 | 8859 ft | 296 kts | 272° |
| 2026-05-03 22:34 | 37.69152 | -122.78064 | 9379 ft | 299 kts | 272° |
| 2026-05-03 22:34 | 37.69308 | -122.80698 | 9916 ft | 303 kts | 272° |
| 2026-05-03 22:35 | 37.69465 | -122.83375 | 10305 ft | 311 kts | 272° |
| 2026-05-03 22:35 | 37.69627 | -122.86177 | 10429 ft | 329 kts | 272° |
| 2026-05-03 22:35 | 37.69798 | -122.89136 | 10578 ft | 348 kts | 272° |
| 2026-05-03 22:35 | 37.69979 | -122.92261 | 10738 ft | 366 kts | 272° |
| 2026-05-03 22:36 | 37.70167 | -122.95523 | 11065 ft | 378 kts | 273° |
| 2026-05-03 22:36 | 37.70361 | -122.98871 | 11553 ft | 386 kts | 273° |
| 2026-05-03 22:36 | 37.70558 | -123.02273 | 12189 ft | 390 kts | 272° |
| 2026-05-03 22:36 | 37.70755 | -123.05701 | 12904 ft | 393 kts | 272° |
| 2026-05-03 22:37 | 37.70952 | -123.09159 | 13600 ft | 396 kts | 272° |
| 2026-05-03 22:37 | 37.71150 | -123.12651 | 14219 ft | 401 kts | 272° |
| 2026-05-03 22:37 | 37.71349 | -123.16176 | 14830 ft | 405 kts | 272° |
| 2026-05-03 22:37 | 37.71548 | -123.19737 | 15422 ft | 409 kts | 272° |
| 2026-05-03 22:38 | 37.71748 | -123.23336 | 16012 ft | 412 kts | 272° |
| 2026-05-03 22:38 | 37.71946 | -123.26916 | 16614 ft | 416 kts | 272° |
| 2026-05-03 22:38 | 37.72147 | -123.30575 | 17212 ft | 420 kts | 272° |
| 2026-05-03 22:38 | 37.72349 | -123.34267 | 17796 ft | 424 kts | 272° |
| 2026-05-03 22:39 | 37.72552 | -123.38001 | 18370 ft | 428 kts | 272° |
| 2026-05-03 22:39 | 37.72756 | -123.41765 | 18862 ft | 432 kts | 272° |
| 2026-05-03 22:39 | 37.72960 | -123.45569 | 19335 ft | 436 kts | 272° |
| 2026-05-03 22:39 | 37.73165 | -123.49407 | 19790 ft | 441 kts | 272° |
| 2026-05-03 22:40 | 37.73371 | -123.53290 | 20262 ft | 445 kts | 272° |
| 2026-05-03 22:40 | 37.73578 | -123.57208 | 20734 ft | 449 kts | 272° |
| 2026-05-03 22:40 | 37.73785 | -123.61163 | 21191 ft | 453 kts | 272° |
| 2026-05-03 22:40 | 37.73993 | -123.65157 | 21637 ft | 458 kts | 272° |
| 2026-05-03 22:41 | 37.74202 | -123.69192 | 22101 ft | 462 kts | 272° |
| 2026-05-03 22:41 | 37.74411 | -123.73253 | 22568 ft | 465 kts | 272° |
| 2026-05-03 22:41 | 37.74620 | -123.77349 | 23013 ft | 469 kts | 272° |
| 2026-05-03 22:41 | 37.74829 | -123.81483 | 23432 ft | 473 kts | 272° |
| 2026-05-03 22:42 | 37.75039 | -123.85652 | 23795 ft | 478 kts | 272° |
| 2026-05-03 22:42 | 37.75249 | -123.89851 | 24166 ft | 481 kts | 272° |
| 2026-05-03 22:42 | 37.75460 | -123.94079 | 24520 ft | 483 kts | 272° |
| 2026-05-03 22:42 | 37.75669 | -123.98334 | 24863 ft | 487 kts | 272° |
| 2026-05-03 22:43 | 37.75879 | -124.02621 | 25213 ft | 490 kts | 273° |
| 2026-05-03 22:43 | 37.76088 | -124.06936 | 25580 ft | 493 kts | 273° |
| 2026-05-03 22:43 | 37.76297 | -124.11276 | 25935 ft | 496 kts | 273° |
| 2026-05-03 22:43 | 37.76506 | -124.15636 | 26277 ft | 499 kts | 273° |
| 2026-05-03 22:44 | 37.76714 | -124.20030 | 26598 ft | 502 kts | 273° |